Time;durP1;ratioP1;P1;durP2;ratioP2;P2;SDS_P1;SDS_P2;PMS_P1;PMS_P2;Temp;Humidity;BMP_temperature;BMP_pressure;BME280_temperature;BME280_humidity;BME280_pressure;Samples;Min_cycle;Max_cycle;Signal;HPM_P1;HPM_P2
2022/05/19 00:01:38;;;;;;;33.35;29.63;;;20.30;99.90;;;;;;5090007;28;20518;-67
2022/05/19 00:04:04;;;;;;;34.42;30.80;;;20.30;99.90;;;;;;5088811;28;20039;-67
2022/05/19 00:06:30;;;;;;;32.42;28.98;;;20.20;99.90;;;;;;5087839;28;20130;-67
2022/05/19 00:08:58;;;;;;;34.42;30.20;;;20.30;99.90;;;;;;5097619;28;20063;-67
2022/05/19 00:11:29;;;;;;;32.78;29.38;;;20.20;99.90;;;;;;5087923;28;20058;-67
2022/05/19 00:13:55;;;;;;;32.45;28.40;;;20.20;99.90;;;;;;5090815;28;20044;-67
2022/05/19 00:16:20;;;;;;;30.75;27.38;;;20.20;99.90;;;;;;5107400;28;20072;-67
2022/05/19 00:18:46;;;;;;;30.23;26.50;;;20.20;99.90;;;;;;5087033;28;20029;-68
2022/05/19 00:21:11;;;;;;;31.77;28.33;;;20.10;99.90;;;;;;5090949;28;20121;-67
2022/05/19 00:23:37;;;;;;;31.30;27.95;;;20.10;99.90;;;;;;5094505;28;20037;-67
2022/05/19 00:26:03;;;;;;;34.50;29.10;;;20.10;99.90;;;;;;5092503;28;20047;-67
2022/05/19 00:28:29;;;;;;;32.38;28.70;;;20.10;99.90;;;;;;5091783;28;20040;-68
2022/05/19 00:30:54;;;;;;;30.23;27.10;;;20.10;99.90;;;;;;5088525;28;20047;-68
2022/05/19 00:33:20;;;;;;;31.77;28.25;;;20.00;99.90;;;;;;5088261;28;20552;-68
2022/05/19 00:35:46;;;;;;;33.50;27.35;;;20.00;99.90;;;;;;5089056;28;20142;-67
2022/05/19 00:38:11;;;;;;;32.90;28.15;;;20.00;99.90;;;;;;5086311;28;20059;-67
2022/05/19 00:40:38;;;;;;;31.98;28.60;;;20.00;99.90;;;;;;5097294;28;20140;-67
2022/05/19 00:43:04;;;;;;;30.85;27.58;;;20.00;99.90;;;;;;5088339;28;20043;-67
2022/05/19 00:45:56;;;;;;;33.15;27.50;;;19.90;99.90;;;;;;5094095;28;20048;-67
2022/05/19 00:48:26;;;;;;;32.35;28.90;;;19.90;99.90;;;;;;5077533;28;20060;-67
2022/05/19 00:51:06;;;;;;;32.70;29.08;;;19.90;99.90;;;;;;5089019;28;20054;-67
2022/05/19 00:53:38;;;;;;;32.85;28.27;;;19.80;99.90;;;;;;5088045;28;21326;-68
2022/05/19 00:56:12;;;;;;;34.10;29.33;;;19.70;99.90;;;;;;5099402;28;20043;-67
2022/05/19 00:59:06;;;;;;;32.65;29.00;;;19.60;99.90;;;;;;5087777;28;20071;-67
2022/05/19 01:01:35;;;;;;;;;;;19.50;99.90;;;;;;5088999;28;20044;-68
2022/05/19 01:04:12;;;;;;;34.85;31.15;;;19.40;99.90;;;;;;5087251;28;19920;-68
2022/05/19 01:06:39;;;;;;;33.80;29.88;;;19.30;99.90;;;;;;5087606;28;20101;-68
2022/05/19 01:09:12;;;;;;;36.17;31.42;;;19.20;99.90;;;;;;5095989;28;20040;-68
2022/05/19 01:11:38;;;;;;;34.22;30.70;;;19.20;99.90;;;;;;5086147;28;20044;-68
2022/05/19 01:14:05;;;;;;;35.03;31.38;;;19.20;99.90;;;;;;5105896;28;20039;-68
2022/05/19 01:16:32;;;;;;;35.20;31.52;;;19.20;99.90;;;;;;5086457;28;20394;-69
2022/05/19 01:18:58;;;;;;;37.03;32.25;;;19.20;99.90;;;;;;5088681;28;20550;-69
2022/05/19 01:21:27;;;;;;;37.88;32.10;;;19.20;99.90;;;;;;5093942;28;20048;-69
2022/05/19 01:24:21;;;;;;;35.78;31.30;;;19.20;99.90;;;;;;5095610;28;20054;-69
2022/05/19 01:26:50;;;;;;;36.90;32.80;;;19.20;99.90;;;;;;5089993;28;20439;-69
2022/05/19 01:29:18;;;;;;;34.25;30.60;;;19.20;99.90;;;;;;5089515;28;20035;-68
2022/05/19 01:31:49;;;;;;;35.25;31.60;;;19.20;99.90;;;;;;5088411;28;20116;-68
2022/05/19 01:34:18;;;;;;;39.00;32.50;;;19.20;99.90;;;;;;5098835;28;20051;-69
2022/05/19 01:36:44;;;;;;;37.67;32.80;;;19.20;99.90;;;;;;5088017;28;20032;-68
2022/05/19 01:39:13;;;;;;;36.13;32.22;;;19.10;99.90;;;;;;5088954;28;20133;-69
2022/05/19 01:41:58;;;;;;;39.70;34.60;;;19.10;99.90;;;;;;5100911;28;20075;-68
2022/05/19 01:45:00;;;;;;;36.45;32.67;;;19.10;99.90;;;;;;5109668;28;20491;-69
2022/05/19 01:48:07;;;;;;;37.25;33.33;;;19.00;99.90;;;;;;5102972;28;20068;-68
2022/05/19 01:50:36;;;;;;;36.35;32.42;;;19.00;99.90;;;;;;5045552;28;20101;-68
2022/05/19 01:53:06;;;;;;;40.08;35.55;;;18.90;99.90;;;;;;5087480;28;20059;-68
2022/05/19 01:55:55;;;;;;;38.33;34.22;;;18.90;99.90;;;;;;5087303;28;20063;-68
2022/05/19 01:58:38;;;;;;;37.50;33.60;;;18.90;99.90;;;;;;5088994;28;20040;-68
2022/05/19 02:01:06;;;;;;;39.30;33.88;;;18.90;99.90;;;;;;5089815;28;20047;-68
2022/05/19 02:03:44;;;;;;;39.80;33.53;;;18.90;99.90;;;;;;5105556;28;20047;-68
2022/05/19 02:06:24;;;;;;;36.72;32.83;;;18.90;99.90;;;;;;5086225;28;20046;-68
2022/05/19 02:08:57;;;;;;;39.30;35.25;;;18.80;99.90;;;;;;5087331;28;20047;-68
2022/05/19 02:11:29;;;;;;;38.53;34.53;;;18.80;99.90;;;;;;5085637;28;20076;-68
2022/05/19 02:14:00;;;;;;;39.08;34.90;;;18.80;99.90;;;;;;5097988;28;20120;-68
2022/05/19 02:16:27;;;;;;;39.47;35.33;;;18.70;99.90;;;;;;5099784;28;20561;-68
2022/05/19 02:18:53;;;;;;;39.75;35.03;;;18.70;99.90;;;;;;5088513;28;20097;-69
2022/05/19 02:21:19;;;;;;;40.90;35.80;;;18.70;99.90;;;;;;5090104;28;20052;-67
2022/05/19 02:23:46;;;;;;;40.38;36.17;;;18.70;99.90;;;;;;5091096;28;20042;-68
2022/05/19 02:26:11;;;;;;;39.10;35.10;;;18.60;99.90;;;;;;5090731;28;20507;-68
2022/05/19 02:28:46;;;;;;;39.53;35.22;;;18.60;99.90;;;;;;5091737;28;20048;-68
2022/05/19 02:31:13;;;;;;;39.67;35.47;;;18.60;99.90;;;;;;5092990;28;20054;-68
2022/05/19 02:33:39;;;;;;;39.63;35.60;;;18.50;99.90;;;;;;5094014;28;20499;-68
2022/05/19 02:36:05;;;;;;;40.50;35.65;;;18.50;99.90;;;;;;5099999;28;20039;-68
2022/05/19 02:38:31;;;;;;;39.03;34.78;;;18.50;99.90;;;;;;5088715;28;20089;-68
2022/05/19 02:40:57;;;;;;;40.55;35.90;;;18.50;99.90;;;;;;5091370;28;20048;-68
2022/05/19 02:43:22;;;;;;;40.15;36.05;;;18.50;99.90;;;;;;5097043;28;20122;-68
2022/05/19 02:45:49;;;;;;;41.20;36.80;;;18.50;99.90;;;;;;5100462;28;20050;-68
2022/05/19 02:48:15;;;;;;;42.97;38.30;;;18.50;99.90;;;;;;5092255;28;20048;-68
2022/05/19 02:50:42;;;;;;;42.83;37.40;;;18.50;99.90;;;;;;5090279;28;20399;-68
2022/05/19 02:53:09;;;;;;;;;;;18.40;99.90;;;;;;5096157;28;20066;-68
2022/05/19 02:55:34;;;;;;;41.80;37.50;;;18.40;99.90;;;;;;5095775;28;19927;-68
2022/05/19 02:58:00;;;;;;;43.25;38.65;;;18.30;99.90;;;;;;5108077;28;20051;-68
2022/05/19 03:00:27;;;;;;;42.90;38.10;;;18.40;99.90;;;;;;5108223;28;20521;-68
2022/05/19 03:02:54;;;;;;;45.20;39.42;;;18.40;99.90;;;;;;5092894;28;20126;-68
2022/05/19 03:05:23;;;;;;;42.90;38.35;;;18.40;99.90;;;;;;5090321;28;20495;-68
2022/05/19 03:07:49;;;;;;;46.20;40.15;;;18.40;99.90;;;;;;5104775;28;20556;-68
2022/05/19 03:10:16;;;;;;;43.97;39.28;;;18.40;99.90;;;;;;5112645;28;20036;-68
2022/05/19 03:12:41;;;;;;;46.63;41.65;;;18.40;99.90;;;;;;5099850;28;20442;-68
2022/05/19 03:15:08;;;;;;;45.35;40.50;;;18.30;99.90;;;;;;5103773;28;20097;-68
2022/05/19 03:17:34;;;;;;;48.05;40.55;;;18.30;99.90;;;;;;5095177;28;20046;-68
2022/05/19 03:20:00;;;;;;;44.33;39.60;;;18.30;99.90;;;;;;5112035;28;20035;-68
2022/05/19 03:22:26;;;;;;;43.92;39.20;;;18.30;99.90;;;;;;5106818;28;20050;-68
2022/05/19 03:24:52;;;;;;;44.67;39.65;;;18.40;99.90;;;;;;5087450;28;20064;-68
2022/05/19 03:27:20;;;;;;;46.30;41.45;;;18.30;99.90;;;;;;5102433;28;20043;-68
2022/05/19 03:29:46;;;;;;;44.10;39.58;;;18.30;99.90;;;;;;5103391;28;20483;-68
2022/05/19 03:32:12;;;;;;;45.47;40.67;;;18.30;99.90;;;;;;5086001;28;20063;-67
2022/05/19 03:34:37;;;;;;;45.05;40.20;;;18.30;99.90;;;;;;5110400;28;20043;-68
2022/05/19 03:37:06;;;;;;;44.67;40.05;;;18.30;99.90;;;;;;5089853;28;20136;-68
2022/05/19 03:39:33;;;;;;;44.95;40.08;;;18.40;99.90;;;;;;5100955;28;20127;-69
2022/05/19 03:41:59;;;;;;;49.38;40.53;;;18.30;99.90;;;;;;5088618;28;20112;-69
2022/05/19 03:44:25;;;;;;;45.67;40.97;;;18.30;99.90;;;;;;5100290;28;20483;-69
2022/05/19 03:46:50;;;;;;;45.05;40.40;;;18.30;99.90;;;;;;5095544;28;20546;-68
2022/05/19 03:49:16;;;;;;;48.28;43.22;;;18.30;99.90;;;;;;5090435;28;20048;-68
2022/05/19 03:51:42;;;;;;;45.22;40.35;;;18.20;99.90;;;;;;5091555;28;20391;-68
2022/05/19 03:54:08;;;;;;;46.17;41.17;;;18.30;99.90;;;;;;5088705;28;20120;-68
2022/05/19 03:56:34;;;;;;;47.17;42.00;;;18.30;99.90;;;;;;5092525;28;20490;-68
2022/05/19 03:59:00;;;;;;;46.50;41.35;;;18.20;99.90;;;;;;5110417;28;20058;-68
2022/05/19 04:01:26;;;;;;;47.30;42.50;;;18.30;99.90;;;;;;5093889;28;20058;-68
2022/05/19 04:03:52;;;;;;;44.85;40.15;;;18.30;99.90;;;;;;5087085;28;20063;-68
2022/05/19 04:06:18;;;;;;;45.25;40.42;;;18.30;99.90;;;;;;5088567;28;20426;-68
2022/05/19 04:08:44;;;;;;;44.72;40.03;;;18.30;99.90;;;;;;5091657;28;20036;-68
2022/05/19 04:11:10;;;;;;;49.20;41.53;;;18.30;99.90;;;;;;5089368;28;20035;-68
2022/05/19 04:13:35;;;;;;;45.88;40.95;;;18.30;99.90;;;;;;5091081;28;20044;-68
2022/05/19 04:16:01;;;;;;;44.92;40.08;;;18.30;99.90;;;;;;5087825;28;20063;-68
2022/05/19 04:18:27;;;;;;;43.78;39.22;;;18.40;99.90;;;;;;5103860;28;20043;-68
2022/05/19 04:20:52;;;;;;;43.65;39.20;;;18.40;99.90;;;;;;5105724;28;20469;-68
2022/05/19 04:23:18;;;;;;;44.67;39.80;;;18.40;99.90;;;;;;5107743;28;20401;-68
2022/05/19 04:25:44;;;;;;;44.58;40.28;;;18.40;99.90;;;;;;5095681;28;20261;-68
2022/05/19 04:28:10;;;;;;;43.88;39.42;;;18.40;99.90;;;;;;5088756;28;20074;-67
2022/05/19 04:30:36;;;;;;;45.38;40.58;;;18.50;99.90;;;;;;5089396;28;20101;-68
2022/05/19 04:33:04;;;;;;;44.53;39.85;;;18.50;99.90;;;;;;5098044;28;20106;-68
2022/05/19 04:35:31;;;;;;;42.55;38.25;;;18.50;99.90;;;;;;5100571;28;20123;-68
2022/05/19 04:38:00;;;;;;;42.10;37.70;;;18.60;99.90;;;;;;5110794;28;20043;-68
2022/05/19 04:40:26;;;;;;;41.63;37.55;;;18.60;99.90;;;;;;5097126;28;20036;-68
2022/05/19 04:42:53;;;;;;;38.47;34.58;;;18.60;99.90;;;;;;5092292;28;20074;-68
2022/05/19 04:45:19;;;;;;;39.05;35.05;;;18.70;99.90;;;;;;5103817;28;20048;-68
2022/05/19 04:47:45;;;;;;;37.22;33.58;;;18.70;99.90;;;;;;5110777;28;20043;-68
2022/05/19 04:50:12;;;;;;;35.55;32.17;;;18.70;99.90;;;;;;5094999;28;20055;-68
2022/05/19 04:52:38;;;;;;;35.45;31.85;;;18.80;99.90;;;;;;5087819;28;20047;-68
2022/05/19 04:55:05;;;;;;;34.53;30.92;;;18.80;99.90;;;;;;5085636;28;20044;-68
2022/05/19 04:57:30;;;;;;;35.58;31.98;;;18.90;99.90;;;;;;5106079;28;20119;-68
2022/05/19 04:59:56;;;;;;;35.08;31.63;;;19.00;99.90;;;;;;5104036;28;20126;-68
2022/05/19 05:02:22;;;;;;;33.95;30.30;;;19.00;99.90;;;;;;5086139;28;20102;-68
2022/05/19 05:04:47;;;;;;;35.28;31.73;;;19.10;99.90;;;;;;5089546;28;20047;-68
2022/05/19 05:07:13;;;;;;;44.45;39.83;;;19.10;99.90;;;;;;5103980;28;20075;-68
2022/05/19 05:09:38;;;;;;;36.75;33.10;;;19.20;99.90;;;;;;5103587;28;20100;-68
2022/05/19 05:12:05;;;;;;;31.77;28.40;;;19.20;99.90;;;;;;5089683;28;20051;-67
2022/05/19 05:14:30;;;;;;;32.53;29.23;;;19.20;99.90;;;;;;5097613;28;20040;-68
2022/05/19 05:16:56;;;;;;;31.33;28.35;;;19.20;99.90;;;;;;5090672;28;20046;-68
2022/05/19 05:19:23;;;;;;;30.75;27.80;;;19.20;99.90;;;;;;5094158;28;20601;-68
2022/05/19 05:21:51;;;;;;;31.35;28.25;;;19.30;99.90;;;;;;5088434;28;20047;-68
2022/05/19 05:24:17;;;;;;;31.30;28.27;;;19.30;99.90;;;;;;5094988;28;20122;-68
2022/05/19 05:26:43;;;;;;;31.23;28.10;;;19.40;99.90;;;;;;5109664;28;20093;-68
2022/05/19 05:29:09;;;;;;;30.65;27.52;;;19.40;99.90;;;;;;5105788;28;20054;-68
2022/05/19 05:31:38;;;;;;;31.10;27.95;;;19.50;99.90;;;;;;5084338;28;20047;-68
2022/05/19 05:34:04;;;;;;;30.13;27.13;;;19.60;99.90;;;;;;5086387;28;20060;-68
2022/05/19 05:36:30;;;;;;;29.80;26.85;;;19.60;99.90;;;;;;5087920;28;20036;-68
2022/05/19 05:38:57;;;;;;;31.38;28.30;;;19.70;99.90;;;;;;5089342;28;20043;-67
2022/05/19 05:41:23;;;;;;;33.15;29.92;;;19.80;99.90;;;;;;5097627;28;20480;-68
2022/05/19 05:43:48;;;;;;;31.27;27.88;;;19.90;99.90;;;;;;5100777;28;20181;-68
2022/05/19 05:46:15;;;;;;;24.65;22.05;;;19.90;99.90;;;;;;5086736;28;20040;-69
2022/05/19 05:48:43;;;;;;;24.10;21.80;;;20.00;99.90;;;;;;5085248;28;20055;-65
2022/05/19 05:51:10;;;;;;;24.00;21.33;;;20.00;99.90;;;;;;5069678;28;20051;-65
2022/05/19 05:53:37;;;;;;;20.90;18.80;;;20.00;99.90;;;;;;5088330;28;20047;-66
2022/05/19 05:56:04;;;;;;;20.65;17.25;;;20.10;99.90;;;;;;5101709;28;20051;-66
2022/05/19 05:58:30;;;;;;;17.60;14.75;;;20.10;99.90;;;;;;5096583;28;20111;-68
2022/05/19 06:00:56;;;;;;;15.38;13.40;;;20.30;99.90;;;;;;5086545;28;20114;-68
2022/05/19 06:03:22;;;;;;;16.27;14.57;;;20.40;99.90;;;;;;5087555;28;20067;-68
2022/05/19 06:05:48;;;;;;;16.77;14.63;;;20.50;99.90;;;;;;5086173;28;20479;-68
2022/05/19 06:08:14;;;;;;;17.35;14.48;;;20.60;99.90;;;;;;5084222;28;20043;-68
2022/05/19 06:10:39;;;;;;;16.02;13.32;;;20.80;99.90;;;;;;5105974;28;20044;-68
2022/05/19 06:13:05;;;;;;;15.88;14.25;;;20.90;99.90;;;;;;5105310;28;20048;-68
2022/05/19 06:15:31;;;;;;;18.15;14.00;;;21.00;99.90;;;;;;5086968;28;20040;-68
2022/05/19 06:17:58;;;;;;;19.23;14.38;;;20.90;99.90;;;;;;5084739;28;20048;-68
2022/05/19 06:20:24;;;;;;;15.02;12.68;;;20.90;99.90;;;;;;5083270;28;20613;-68
2022/05/19 06:22:50;;;;;;;16.02;13.73;;;20.90;99.90;;;;;;5087485;28;20044;-68
2022/05/19 06:25:19;;;;;;;14.15;12.63;;;20.90;99.90;;;;;;5085484;28;21972;-68
2022/05/19 06:27:45;;;;;;;17.27;13.25;;;20.90;99.90;;;;;;5091633;28;20044;-68
2022/05/19 06:30:12;;;;;;;15.20;12.80;;;21.00;99.90;;;;;;5082334;28;20047;-68
2022/05/19 06:32:40;;;;;;;14.65;13.13;;;21.00;99.90;;;;;;5086930;28;20179;-68
2022/05/19 06:35:07;;;;;;;15.48;13.07;;;21.00;99.90;;;;;;5101061;28;20375;-68
2022/05/19 06:37:33;;;;;;;15.88;13.82;;;21.00;99.90;;;;;;5083302;28;20411;-68
2022/05/19 06:39:58;;;;;;;15.15;13.40;;;21.10;99.90;;;;;;5093577;28;20040;-68
2022/05/19 06:42:24;;;;;;;15.07;13.68;;;21.00;99.90;;;;;;5086223;28;20152;-68
2022/05/19 06:44:50;;;;;;;17.77;13.55;;;21.00;99.90;;;;;;5088529;28;20051;-68
2022/05/19 06:47:16;;;;;;;16.03;13.30;;;21.00;99.90;;;;;;5076863;28;20063;-68
2022/05/19 06:49:52;;;;;;;15.60;12.52;;;21.10;99.90;;;;;;5083128;28;20052;-68
2022/05/19 06:52:21;;;;;;;15.20;11.97;;;21.30;99.90;;;;;;5086435;28;20764;-68
2022/05/19 06:54:48;;;;;;;13.77;11.48;;;21.50;99.90;;;;;;5088835;28;20044;-68
2022/05/19 06:57:14;;;;;;;;;;;21.50;99.90;;;;;;5100729;28;20048;-68
2022/05/19 06:59:40;;;;;;;12.57;11.27;;;21.60;99.90;;;;;;5101539;28;20305;-68
2022/05/19 07:02:07;;;;;;;11.98;10.63;;;21.70;99.90;;;;;;5095020;28;20047;-68
2022/05/19 07:04:33;;;;;;;11.45;10.07;;;21.70;99.90;;;;;;5112067;28;20043;-68
2022/05/19 07:06:59;;;;;;;12.55;10.57;;;21.70;99.90;;;;;;5091473;28;20044;-68
2022/05/19 07:09:25;;;;;;;11.93;10.68;;;21.70;99.90;;;;;;5088773;28;20055;-68
2022/05/19 07:11:50;;;;;;;12.43;10.43;;;21.70;99.90;;;;;;5096076;28;20495;-68
2022/05/19 07:14:17;;;;;;;13.98;10.00;;;21.70;99.90;;;;;;5084956;28;20081;-68
2022/05/19 07:16:44;;;;;;;12.20;9.23;;;21.70;99.90;;;;;;5095218;28;20048;-66
2022/05/19 07:21:55;;;;;;;10.73;9.30;;;21.90;99.90;;;;;;5090912;28;20052;-68
2022/05/19 07:24:21;;;;;;;10.65;8.80;;;22.00;99.90;;;;;;5101018;28;20092;-67
2022/05/19 07:26:50;;;;;;;11.80;9.07;;;22.10;99.90;;;;;;5091919;28;20044;-69
2022/05/19 07:29:18;;;;;;;12.55;8.20;;;22.10;99.90;;;;;;5090535;28;20051;-67
2022/05/19 07:31:44;;;;;;;12.60;9.75;;;22.20;99.90;;;;;;5091439;28;20170;-67
2022/05/19 07:34:11;;;;;;;9.85;8.85;;;22.30;99.90;;;;;;5090486;28;20040;-68
2022/05/19 07:36:37;;;;;;;12.45;9.00;;;22.30;99.90;;;;;;5110053;28;20051;-68
2022/05/19 07:39:03;;;;;;;10.85;8.30;;;22.30;99.90;;;;;;5097738;28;20032;-67
2022/05/19 07:41:30;;;;;;;9.35;8.38;;;22.30;99.90;;;;;;5100690;28;20047;-68
2022/05/19 07:43:57;;;;;;;;;;;22.30;99.90;;;;;;5108944;28;20035;-67
2022/05/19 07:46:24;;;;;;;;;;;22.30;99.90;;;;;;5112522;28;19920;-67
2022/05/19 07:48:50;;;;;;;11.02;9.20;;;22.30;99.90;;;;;;5095100;28;19919;-67
2022/05/19 07:51:16;;;;;;;9.93;8.30;;;22.30;99.90;;;;;;5103059;28;20050;-68
2022/05/19 07:53:41;;;;;;;11.07;8.05;;;22.30;99.90;;;;;;5092137;28;20058;-68
2022/05/19 07:56:07;;;;;;;11.07;8.82;;;22.30;99.90;;;;;;5103439;28;20051;-68
2022/05/19 07:58:33;;;;;;;11.77;8.77;;;22.30;99.90;;;;;;5107636;28;20044;-68
2022/05/19 08:01:00;;;;;;;12.48;9.18;;;22.30;99.90;;;;;;5111287;28;20044;-68
2022/05/19 08:03:26;;;;;;;17.25;8.52;;;22.20;99.90;;;;;;5111410;28;20479;-68
2022/05/19 08:05:52;;;;;;;9.32;8.30;;;22.20;99.90;;;;;;5092686;28;20040;-67
2022/05/19 08:08:18;;;;;;;12.95;8.85;;;22.20;99.90;;;;;;5087561;28;20760;-67
2022/05/19 08:10:44;;;;;;;10.63;8.18;;;22.20;99.90;;;;;;5090076;28;20544;-69
2022/05/19 08:15:54;;;;;;;11.75;9.32;;;22.30;99.90;;;;;;5101223;28;20044;-67
2022/05/19 08:18:22;;;;;;;11.27;8.60;;;22.30;99.90;;;;;;5102197;28;20500;-67
2022/05/19 08:20:57;;;;;;;13.15;9.10;;;22.30;99.90;;;;;;5107513;28;20082;-68
2022/05/19 08:23:29;;;;;;;10.82;9.70;;;22.40;99.90;;;;;;5082177;28;20044;-67
2022/05/19 08:25:56;;;;;;;12.90;9.73;;;22.40;99.90;;;;;;5084438;28;20072;-68
2022/05/19 08:28:28;;;;;;;15.00;9.60;;;22.50;99.90;;;;;;5099115;28;20047;-68
2022/05/19 08:30:57;;;;;;;12.00;8.93;;;22.50;99.90;;;;;;5100151;28;20086;-69
2022/05/19 08:33:23;;;;;;;12.00;9.50;;;22.60;99.90;;;;;;5096238;28;20056;-69
2022/05/19 08:35:49;;;;;;;11.30;10.15;;;22.60;99.90;;;;;;5091576;28;20449;-70
2022/05/19 08:38:15;;;;;;;13.88;9.82;;;22.60;99.90;;;;;;5097102;28;20040;-69
2022/05/19 08:40:47;;;;;;;13.13;10.65;;;22.60;99.90;;;;;;5108000;28;20096;-69
2022/05/19 08:43:15;;;;;;;12.75;11.45;;;22.70;99.90;;;;;;5093672;28;20109;-69
2022/05/19 08:45:47;;;;;;;12.80;11.40;;;22.70;99.90;;;;;;5089381;28;20071;-69
2022/05/19 08:48:25;;;;;;;14.88;12.23;;;22.70;99.90;;;;;;5110131;28;20118;-69
2022/05/19 08:51:06;;;;;;;13.15;11.85;;;22.80;99.90;;;;;;5103128;28;20058;-69
2022/05/19 08:53:36;;;;;;;12.32;11.02;;;22.70;99.90;;;;;;5099062;28;20056;-68
2022/05/19 08:56:19;;;;;;;12.52;11.02;;;22.80;99.90;;;;;;5087575;28;20051;-69
2022/05/19 08:59:13;;;;;;;13.18;11.88;;;22.90;99.90;;;;;;5096459;28;20051;-68
2022/05/19 09:02:05;;;;;;;15.60;11.15;;;22.90;99.90;;;;;;5100017;28;20047;-69
2022/05/19 09:05:08;;;;;;;13.82;12.35;;;23.00;99.90;;;;;;5091375;28;20044;-70
2022/05/19 09:07:57;;;;;;;13.80;11.82;;;23.10;99.90;;;;;;5105460;28;20071;-70
2022/05/19 09:10:51;;;;;;;13.18;11.88;;;23.10;99.90;;;;;;5099024;28;20204;-71
2022/05/19 09:13:28;;;;;;;12.75;11.38;;;23.10;99.90;;;;;;5093259;28;20493;-68
2022/05/19 09:15:55;;;;;;;15.48;11.27;;;23.20;99.90;;;;;;5076062;28;20036;-72
2022/05/19 09:18:36;;;;;;;13.40;11.77;;;23.20;99.90;;;;;;5096919;28;20044;-69
2022/05/19 09:21:03;;;;;;;16.70;12.50;;;23.20;99.90;;;;;;5101884;28;20673;-70
2022/05/19 09:23:28;;;;;;;;;;;23.20;99.90;;;;;;5097768;28;20051;-69
2022/05/19 09:26:18;;;;;;;13.67;12.20;;;23.20;99.90;;;;;;5091496;28;19921;-69
2022/05/19 09:28:45;;;;;;;16.08;13.05;;;23.30;99.90;;;;;;5104587;28;20042;-70
2022/05/19 09:31:12;;;;;;;15.67;14.07;;;23.40;99.90;;;;;;5108445;28;20055;-69
2022/05/19 09:33:44;;;;;;;17.35;15.23;;;23.50;99.90;;;;;;5107372;28;20278;-70
2022/05/19 09:36:13;;;;;;;16.63;14.90;;;23.50;99.90;;;;;;5094306;28;20062;-68
2022/05/19 09:38:48;;;;;;;17.92;14.55;;;23.50;99.90;;;;;;5083308;28;20047;-69
2022/05/19 09:41:25;;;;;;;16.50;14.85;;;23.60;99.90;;;;;;5097135;28;20483;-69
2022/05/19 09:43:58;;;;;;;16.73;14.25;;;23.60;99.90;;;;;;5091369;28;20081;-69
2022/05/19 09:46:24;;;;;;;15.63;14.00;;;23.60;99.90;;;;;;5106866;28;20042;-70
2022/05/19 09:49:01;;;;;;;14.93;13.38;;;23.70;99.90;;;;;;5091952;28;20084;-69
2022/05/19 09:51:39;;;;;;;17.65;15.82;;;23.80;99.90;;;;;;5088815;28;20080;-68
2022/05/19 09:54:05;;;;;;;16.63;14.43;;;24.10;99.90;;;;;;5085319;28;20104;-70
2022/05/19 09:57:02;;;;;;;15.77;13.82;;;24.30;99.90;;;;;;5098130;28;20047;-67
2022/05/19 09:59:46;;;;;;;15.30;13.55;;;24.40;99.90;;;;;;5088051;28;20048;-69
2022/05/19 10:02:18;;;;;;;17.05;13.20;;;24.60;99.90;;;;;;5087784;28;20089;-67
2022/05/19 10:04:55;;;;;;;13.07;11.73;;;24.60;99.90;;;;;;5086649;28;20047;-67
2022/05/19 10:07:23;;;;;;;14.75;12.38;;;24.70;99.90;;;;;;5085837;28;20054;-67
2022/05/19 10:09:51;;;;;;;11.93;9.90;;;24.80;99.90;;;;;;5086990;28;20101;-71
2022/05/19 10:12:28;;;;;;;13.52;10.35;;;24.90;99.90;;;;;;5099955;28;20619;-68
2022/05/19 10:15:11;;;;;;;12.57;9.88;;;24.90;99.90;;;;;;5102346;28;20036;-68
2022/05/19 10:17:50;;;;;;;13.50;10.68;;;25.00;99.90;;;;;;5105379;28;20047;-67
2022/05/19 10:20:21;;;;;;;13.63;12.30;;;25.00;99.90;;;;;;5102920;28;20490;-68
2022/05/19 10:22:59;;;;;;;16.65;12.75;;;25.10;99.90;;;;;;5100621;28;20044;-67
2022/05/19 10:25:31;;;;;;;10.45;9.35;;;25.10;99.90;;;;;;5069704;28;20045;-71
2022/05/19 10:31:25;;;;;;;11.18;9.80;;;25.20;99.90;;;;;;5087853;28;20533;-72
2022/05/19 10:34:15;;;;;;;13.32;11.27;;;25.40;99.90;;;;;;5083968;28;20491;-69
2022/05/19 10:37:06;;;;;;;12.00;9.45;;;25.50;99.90;;;;;;5103089;28;20115;-69
2022/05/19 10:39:55;;;;;;;10.98;9.77;;;25.70;99.90;;;;;;5108939;28;20298;-69
2022/05/19 10:42:45;;;;;;;11.68;10.48;;;25.90;99.90;;;;;;5106857;28;20044;-70
2022/05/19 10:45:29;;;;;;;12.10;10.07;;;26.10;99.90;;;;;;5095853;28;20059;-72
2022/05/19 10:48:17;;;;;;;12.55;10.90;;;26.10;99.90;;;;;;5086675;28;20048;-70
2022/05/19 10:50:55;;;;;;;9.70;8.75;;;26.20;99.90;;;;;;5088660;28;20047;-72
2022/05/19 10:53:50;;;;;;;13.68;12.27;;;26.20;99.90;;;;;;5101040;28;20382;-70
2022/05/19 10:56:35;;;;;;;11.52;10.32;;;26.10;99.90;;;;;;5094220;28;20043;-69
2022/05/19 10:59:26;;;;;;;12.00;9.20;;;26.00;99.90;;;;;;5092667;28;20480;-69
2022/05/19 11:02:12;;;;;;;12.27;6.80;;;26.00;99.90;;;;;;5106464;28;20056;-69
2022/05/19 11:05:20;;;;;;;12.52;5.90;;;25.90;99.90;;;;;;5111491;28;20043;-71
2022/05/19 11:08:04;;;;;;;8.85;6.07;;;25.90;99.90;;;;;;5077511;28;20058;-68
2022/05/19 11:10:52;;;;;;;8.27;6.13;;;26.00;99.90;;;;;;5110237;28;20108;-69
2022/05/19 11:13:42;;;;;;;9.88;6.60;;;26.00;99.90;;;;;;5104471;28;20130;-70
2022/05/19 11:16:36;;;;;;;7.95;6.35;;;26.10;99.90;;;;;;5099151;28;20344;-71
2022/05/19 11:19:12;;;;;;;8.43;5.60;;;26.20;99.90;;;;;;5091271;28;20052;-70
2022/05/19 11:21:44;;;;;;;9.10;5.85;;;26.40;99.90;;;;;;5097300;28;20077;-71
2022/05/19 11:24:24;;;;;;;8.35;6.50;;;26.50;99.90;;;;;;5097335;28;20081;-69
2022/05/19 11:27:00;;;;;;;8.25;6.22;;;26.60;99.90;;;;;;5111086;28;20143;-71
2022/05/19 11:29:48;;;;;;;8.45;5.82;;;26.70;99.90;;;;;;5092621;28;20044;-71
2022/05/19 11:32:46;;;;;;;7.28;5.82;;;26.80;99.50;;;;;;5100174;28;20131;-73
2022/05/19 11:35:20;;;;;;;8.82;5.18;;;26.90;99.90;;;;;;5094371;28;20060;-75
2022/05/19 11:37:56;;;;;;;7.80;4.90;;;26.90;98.90;;;;;;5101880;28;20120;-72
2022/05/19 11:40:43;;;;;;;6.18;5.00;;;27.00;98.10;;;;;;5081614;28;20032;-70
2022/05/19 11:43:17;;;;;;;7.18;4.93;;;27.10;99.90;;;;;;5096945;28;20075;-73
2022/05/19 11:45:54;;;;;;;6.40;4.50;;;27.20;99.30;;;;;;5107780;28;20070;-71
2022/05/19 11:57:34;;;;;;;6.75;4.38;;;27.60;99.00;;;;;;5088180;28;20412;-72
2022/05/19 12:00:03;;;;;;;8.55;4.65;;;27.60;98.70;;;;;;5090451;28;20181;-69
2022/05/19 12:02:48;;;;;;;4.55;3.70;;;27.80;97.30;;;;;;5097369;28;20391;-71
2022/05/19 12:05:39;;;;;;;6.35;4.68;;;27.90;97.90;;;;;;5103251;28;20048;-71
2022/05/19 12:08:13;;;;;;;6.35;4.45;;;27.90;98.20;;;;;;5099767;28;20047;-72
2022/05/19 12:10:48;;;;;;;7.90;4.88;;;27.80;95.80;;;;;;5109695;28;20040;-72
2022/05/19 12:13:19;;;;;;;7.25;4.50;;;27.80;95.30;;;;;;5101391;28;20040;-71
2022/05/19 12:15:57;;;;;;;6.57;4.20;;;27.90;95.50;;;;;;5092792;28;20047;-70
2022/05/19 12:18:22;;;;;;;4.65;3.75;;;27.90;93.90;;;;;;5104914;28;20050;-67
2022/05/19 12:21:00;;;;;;;5.37;3.97;;;28.00;95.10;;;;;;5088549;28;20040;-71
2022/05/19 12:23:42;;;;;;;5.28;3.78;;;28.00;93.20;;;;;;5088373;28;20087;-71
2022/05/19 12:26:16;;;;;;;5.65;3.75;;;28.00;90.10;;;;;;5096186;28;20556;-74
2022/05/19 12:29:10;;;;;;;7.15;4.15;;;27.90;89.90;;;;;;5096789;28;20052;-72
2022/05/19 12:31:59;;;;;;;5.55;3.55;;;27.80;91.20;;;;;;5084164;28;20037;-72
2022/05/19 12:34:56;;;;;;;4.15;3.70;;;27.70;93.10;;;;;;5073210;28;20052;-68
2022/05/19 12:37:35;;;;;;;5.32;3.65;;;27.70;89.20;;;;;;5059301;28;20372;-70
2022/05/19 12:40:19;;;;;;;6.10;3.70;;;27.60;93.00;;;;;;5104774;28;20045;-69
2022/05/19 12:42:46;;;;;;;4.45;3.28;;;27.50;94.50;;;;;;5094694;28;20126;-69
2022/05/19 12:45:37;;;;;;;4.30;3.22;;;27.40;93.30;;;;;;5092117;28;20051;-69
2022/05/19 12:48:15;;;;;;;4.53;2.63;;;27.40;91.60;;;;;;5093901;28;20102;-68
2022/05/19 12:50:40;;;;;;;5.72;2.67;;;27.20;82.90;;;;;;5080896;28;20099;-70
2022/05/19 12:53:09;;;;;;;8.13;3.13;;;27.10;79.40;;;;;;5085474;28;20090;-67
2022/05/19 12:55:42;;;;;;;7.72;3.08;;;27.00;84.60;;;;;;5085844;28;20479;-69
2022/05/19 12:58:42;;;;;;;5.60;3.30;;;26.90;92.40;;;;;;5095462;28;20056;-69
2022/05/19 13:01:22;;;;;;;8.52;3.40;;;26.70;94.50;;;;;;5104725;28;20510;-69
2022/05/19 13:04:18;;;;;;;5.85;2.90;;;26.40;94.20;;;;;;5088516;28;20040;-69
2022/05/19 13:06:55;;;;;;;6.80;3.80;;;26.20;95.50;;;;;;5086207;28;20124;-69
2022/05/19 13:09:25;;;;;;;;;;;26.00;97.30;;;;;;5091393;28;20092;-68
2022/05/19 13:11:56;;;;;;;4.97;3.50;;;25.70;99.90;;;;;;5102090;28;20424;-70
2022/05/19 13:14:43;;;;;;;6.07;3.10;;;25.40;99.90;;;;;;5101937;28;20686;-69